This is the latest recevied weather packets stored in our database for station/object JA3QOS-13. If no packets are shown the sender has not sent any weather packets the latest 10 day(s).
| Time | Temp. | Humidity | Pressure | Rain* | Wind** | Luminosity | Snow |
|---|---|---|---|---|---|---|---|
| 1777761004 | 13.89° C | 80% | 1011.3 hPa | 0 mm | - | - | - |
| 1777759204 | 14.44° C | 76% | 1011.6 hPa | 0 mm | - | - | - |
| 1777757403 | 13.89° C | 79% | 1011.4 hPa | 0 mm | - | - | - |
| 1777755604 | 13.89° C | 77% | 1011.5 hPa | 0 mm | - | - | - |
| 1777753804 | 14.44° C | 74% | 1011.8 hPa | 0 mm | - | - | - |
| 1777752004 | 14.44° C | 76% | 1011.7 hPa | 0 mm | - | - | - |
| 1777750204 | 13.89° C | 79% | 1011.6 hPa | 0 mm | - | - | - |
| 1777748403 | 14.44° C | 77% | 1011.6 hPa | 0 mm | - | - | - |
| 1777746603 | 13.89° C | 82% | 1011.9 hPa | 0 mm | - | - | - |
| 1777744803 | 13.33° C | 91% | 1011.8 hPa | 0 mm | - | - | - |
| 1777743004 | 13.33° C | 94% | 1011.8 hPa | 0 mm | - | - | - |
| 1777741204 | 13.33° C | 94% | 1011.9 hPa | 0 mm | - | - | - |
| 1777739404 | 13.33° C | 91% | 1012.1 hPa | 0 mm | - | - | - |
| 1777737604 | 13.89° C | 89% | 1012.3 hPa | 0 mm | - | - | - |
| 1777735803 | 13.89° C | 85% | 1012.3 hPa | 0 mm | - | - | - |
| 1777734004 | 14.44° C | 78% | 1012.5 hPa | 0 mm | - | - | - |
| 1777732204 | 14.44° C | 76% | 1012.9 hPa | 0 mm | - | - | - |
| 1777730404 | 14.44° C | 78% | 1013 hPa | 0 mm | - | - | - |
| 1777728604 | 15° C | 78% | 1013 hPa | 0 mm | - | - | - |
| 1777726803 | 14.44° C | 80% | 1013.4 hPa | 0 mm | - | - | - |
| 1777725003 | 14.44° C | 81% | 1013.2 hPa | 0 mm | - | - | - |
| 1777723204 | 15.56° C | 77% | 1013.1 hPa | 0 mm | - | - | - |
| 1777721404 | 16.11° C | 75% | 1013 hPa | 0 mm | - | - | - |
| 1777719604 | 15.56° C | 76% | 1012.8 hPa | 0 mm | - | - | - |
| 1777717804 | 15.56° C | 76% | 1012.4 hPa | 0 mm | - | - | - |
* Rain latest hour (hover to see other rain measurements)
** Current wind speed in m/s (hover to see current wind gust speed)